sensor_id;sensor_type;location;lat;lon;timestamp;P1;durP1;ratioP1;P2;durP2;ratioP2
1677;SDS011;6034;46.864;15.216;2024-01-30T06:01:27;5.13;;;3.85;;
1677;SDS011;6034;46.864;15.216;2024-01-30T06:03:54;13.70;;;9.35;;
1677;SDS011;6034;46.864;15.216;2024-01-30T06:06:22;32.67;;;17.55;;
1677;SDS011;6034;46.864;15.216;2024-01-30T06:08:49;200.77;;;77.07;;
1677;SDS011;6034;46.864;15.216;2024-01-30T06:11:16;504.98;;;210.63;;
1677;SDS011;6034;46.864;15.216;2024-01-30T06:13:44;324.58;;;139.48;;
1677;SDS011;6034;46.864;15.216;2024-01-30T06:16:12;230.30;;;105.50;;
1677;SDS011;6034;46.864;15.216;2024-01-30T06:18:41;135.70;;;69.97;;
1677;SDS011;6034;46.864;15.216;2024-01-30T06:21:10;56.15;;;36.83;;
1677;SDS011;6034;46.864;15.216;2024-01-30T06:23:39;35.08;;;24.48;;
1677;SDS011;6034;46.864;15.216;2024-01-30T06:26:08;20.83;;;13.90;;
1677;SDS011;6034;46.864;15.216;2024-01-30T06:28:36;17.63;;;14.10;;
1677;SDS011;6034;46.864;15.216;2024-01-30T06:31:06;11.30;;;7.80;;
1677;SDS011;6034;46.864;15.216;2024-01-30T06:33:34;12.75;;;7.88;;
1677;SDS011;6034;46.864;15.216;2024-01-30T06:36:03;13.05;;;11.25;;
1677;SDS011;6034;46.864;15.216;2024-01-30T06:38:31;18.00;;;14.95;;
1677;SDS011;6034;46.864;15.216;2024-01-30T06:40:58;18.50;;;13.18;;
1677;SDS011;6034;46.864;15.216;2024-01-30T06:43:26;11.65;;;10.40;;
1677;SDS011;6034;46.864;15.216;2024-01-30T06:45:54;11.05;;;9.93;;
1677;SDS011;6034;46.864;15.216;2024-01-30T06:48:26;10.63;;;9.50;;
1677;SDS011;6034;46.864;15.216;2024-01-30T06:50:54;9.50;;;7.50;;
1677;SDS011;6034;46.864;15.216;2024-01-30T06:53:26;8.65;;;6.70;;
1677;SDS011;6034;46.864;15.216;2024-01-30T06:55:54;8.23;;;6.55;;
1677;SDS011;6034;46.864;15.216;2024-01-30T06:58:21;6.68;;;4.60;;
1677;SDS011;6034;46.864;15.216;2024-01-30T07:00:48;12.43;;;9.27;;
1677;SDS011;6034;46.864;15.216;2024-01-30T07:03:16;16.17;;;14.68;;
1677;SDS011;6034;46.864;15.216;2024-01-30T07:05:43;12.65;;;11.45;;
1677;SDS011;6034;46.864;15.216;2024-01-30T07:08:11;10.77;;;7.05;;
1677;SDS011;6034;46.864;15.216;2024-01-30T07:10:40;6.78;;;5.00;;
1677;SDS011;6034;46.864;15.216;2024-01-30T07:13:09;8.98;;;5.30;;
1677;SDS011;6034;46.864;15.216;2024-01-30T07:15:37;6.32;;;4.70;;
1677;SDS011;6034;46.864;15.216;2024-01-30T07:18:05;5.72;;;4.38;;
1677;SDS011;6034;46.864;15.216;2024-01-30T07:20:33;9.05;;;4.60;;
1677;SDS011;6034;46.864;15.216;2024-01-30T07:23:00;6.75;;;5.55;;
1677;SDS011;6034;46.864;15.216;2024-01-30T07:25:28;6.97;;;4.45;;
1677;SDS011;6034;46.864;15.216;2024-01-30T07:27:57;10.90;;;5.00;;
1677;SDS011;6034;46.864;15.216;2024-01-30T07:30:24;5.95;;;4.82;;
1677;SDS011;6034;46.864;15.216;2024-01-30T07:32:52;4.95;;;4.45;;
1677;SDS011;6034;46.864;15.216;2024-01-30T07:35:19;9.75;;;5.25;;
1677;SDS011;6034;46.864;15.216;2024-01-30T07:37:46;9.77;;;5.50;;
1677;SDS011;6034;46.864;15.216;2024-01-30T07:40:14;7.32;;;6.00;;
1677;SDS011;6034;46.864;15.216;2024-01-30T07:42:42;9.90;;;4.55;;
1677;SDS011;6034;46.864;15.216;2024-01-30T07:45:11;7.50;;;4.47;;
1677;SDS011;6034;46.864;15.216;2024-01-30T07:47:38;6.93;;;4.10;;
1677;SDS011;6034;46.864;15.216;2024-01-30T07:50:06;8.95;;;5.15;;
1677;SDS011;6034;46.864;15.216;2024-01-30T07:52:34;8.05;;;4.75;;
1677;SDS011;6034;46.864;15.216;2024-01-30T07:58:15;5.63;;;4.88;;
1677;SDS011;6034;46.864;15.216;2024-01-30T08:00:44;7.97;;;6.00;;
1677;SDS011;6034;46.864;15.216;2024-01-30T08:03:11;6.93;;;4.75;;
1677;SDS011;6034;46.864;15.216;2024-01-30T08:05:41;6.40;;;5.32;;
1677;SDS011;6034;46.864;15.216;2024-01-30T08:08:08;6.38;;;4.82;;
1677;SDS011;6034;46.864;15.216;2024-01-30T08:10:36;5.93;;;4.40;;
1677;SDS011;6034;46.864;15.216;2024-01-30T08:13:03;8.18;;;6.05;;
1677;SDS011;6034;46.864;15.216;2024-01-30T08:15:32;6.75;;;4.80;;
1677;SDS011;6034;46.864;15.216;2024-01-30T08:18:01;7.07;;;5.40;;
1677;SDS011;6034;46.864;15.216;2024-01-30T08:20:28;9.68;;;4.93;;
1677;SDS011;6034;46.864;15.216;2024-01-30T08:22:55;6.70;;;5.57;;
1677;SDS011;6034;46.864;15.216;2024-01-30T08:25:23;7.10;;;4.93;;
1677;SDS011;6034;46.864;15.216;2024-01-30T08:27:50;7.43;;;5.68;;
1677;SDS011;6034;46.864;15.216;2024-01-30T08:30:18;8.32;;;5.90;;
1677;SDS011;6034;46.864;15.216;2024-01-30T08:32:46;8.45;;;6.40;;
1677;SDS011;6034;46.864;15.216;2024-01-30T08:35:15;6.78;;;5.25;;
1677;SDS011;6034;46.864;15.216;2024-01-30T08:37:42;7.93;;;5.70;;
1677;SDS011;6034;46.864;15.216;2024-01-30T08:40:09;10.25;;;6.13;;
1677;SDS011;6034;46.864;15.216;2024-01-30T08:42:37;8.40;;;5.38;;
1677;SDS011;6034;46.864;15.216;2024-01-30T08:45:04;9.18;;;5.63;;
1677;SDS011;6034;46.864;15.216;2024-01-30T08:47:32;10.00;;;6.45;;
1677;SDS011;6034;46.864;15.216;2024-01-30T08:49:59;8.68;;;5.85;;
1677;SDS011;6034;46.864;15.216;2024-01-30T08:52:29;7.50;;;5.75;;
1677;SDS011;6034;46.864;15.216;2024-01-30T08:54:56;6.85;;;5.78;;
1677;SDS011;6034;46.864;15.216;2024-01-30T08:57:23;10.05;;;7.35;;
1677;SDS011;6034;46.864;15.216;2024-01-30T08:59:53;10.05;;;6.15;;
1677;SDS011;6034;46.864;15.216;2024-01-30T09:02:21;8.38;;;5.45;;
1677;SDS011;6034;46.864;15.216;2024-01-30T09:04:48;7.50;;;5.80;;
1677;SDS011;6034;46.864;15.216;2024-01-30T09:07:16;7.47;;;5.88;;
1677;SDS011;6034;46.864;15.216;2024-01-30T09:09:44;7.95;;;6.03;;
1677;SDS011;6034;46.864;15.216;2024-01-30T09:12:12;8.85;;;6.60;;
1677;SDS011;6034;46.864;15.216;2024-01-30T09:14:40;8.50;;;5.28;;
1677;SDS011;6034;46.864;15.216;2024-01-30T09:17:07;10.02;;;6.13;;
1677;SDS011;6034;46.864;15.216;2024-01-30T09:19:34;5.60;;;5.00;;
1677;SDS011;6034;46.864;15.216;2024-01-30T09:22:02;7.68;;;5.95;;
1677;SDS011;6034;46.864;15.216;2024-01-30T09:24:29;10.65;;;6.18;;
1677;SDS011;6034;46.864;15.216;2024-01-30T09:26:58;7.95;;;6.53;;
1677;SDS011;6034;46.864;15.216;2024-01-30T09:29:25;8.68;;;6.15;;
1677;SDS011;6034;46.864;15.216;2024-01-30T09:31:53;8.82;;;6.45;;
1677;SDS011;6034;46.864;15.216;2024-01-30T09:34:20;6.40;;;4.70;;
1677;SDS011;6034;46.864;15.216;2024-01-30T09:36:48;7.07;;;5.65;;
1677;SDS011;6034;46.864;15.216;2024-01-30T09:39:15;9.35;;;5.47;;
1677;SDS011;6034;46.864;15.216;2024-01-30T09:41:54;9.73;;;6.15;;
1677;SDS011;6034;46.864;15.216;2024-01-30T09:44:28;9.02;;;6.72;;
1677;SDS011;6034;46.864;15.216;2024-01-30T09:46:56;10.02;;;7.65;;
1677;SDS011;6034;46.864;15.216;2024-01-30T09:49:29;7.40;;;6.03;;
1677;SDS011;6034;46.864;15.216;2024-01-30T09:51:58;17.38;;;6.47;;
1677;SDS011;6034;46.864;15.216;2024-01-30T09:54:26;9.25;;;6.20;;
1677;SDS011;6034;46.864;15.216;2024-01-30T09:56:55;9.27;;;7.10;;
1677;SDS011;6034;46.864;15.216;2024-01-30T09:59:23;10.27;;;5.88;;
1677;SDS011;6034;46.864;15.216;2024-01-30T10:01:51;7.10;;;5.60;;
1677;SDS011;6034;46.864;15.216;2024-01-30T10:04:18;7.90;;;5.45;;
1677;SDS011;6034;46.864;15.216;2024-01-30T10:06:47;8.02;;;5.60;;
1677;SDS011;6034;46.864;15.216;2024-01-30T10:09:14;9.63;;;6.40;;
1677;SDS011;6034;46.864;15.216;2024-01-30T10:11:42;9.35;;;5.75;;
1677;SDS011;6034;46.864;15.216;2024-01-30T10:14:09;8.75;;;6.70;;
1677;SDS011;6034;46.864;15.216;2024-01-30T10:16:38;9.95;;;7.38;;
1677;SDS011;6034;46.864;15.216;2024-01-30T10:19:05;10.10;;;6.93;;
1677;SDS011;6034;46.864;15.216;2024-01-30T10:21:33;9.23;;;6.68;;
1677;SDS011;6034;46.864;15.216;2024-01-30T10:24:01;9.85;;;7.15;;
1677;SDS011;6034;46.864;15.216;2024-01-30T10:26:28;13.35;;;7.97;;
1677;SDS011;6034;46.864;15.216;2024-01-30T10:28:59;9.15;;;7.05;;
1677;SDS011;6034;46.864;15.216;2024-01-30T10:31:27;10.00;;;7.15;;
1677;SDS011;6034;46.864;15.216;2024-01-30T10:33:58;9.93;;;7.53;;
1677;SDS011;6034;46.864;15.216;2024-01-30T10:36:28;10.20;;;6.97;;
1677;SDS011;6034;46.864;15.216;2024-01-30T10:38:55;10.07;;;7.07;;
1677;SDS011;6034;46.864;15.216;2024-01-30T10:41:26;9.95;;;7.10;;
1677;SDS011;6034;46.864;15.216;2024-01-30T10:43:58;9.40;;;6.18;;
1677;SDS011;6034;46.864;15.216;2024-01-30T10:46:31;8.50;;;7.05;;
1677;SDS011;6034;46.864;15.216;2024-01-30T10:49:01;8.77;;;7.03;;
1677;SDS011;6034;46.864;15.216;2024-01-30T10:51:31;9.07;;;6.65;;
1677;SDS011;6034;46.864;15.216;2024-01-30T10:54:00;10.85;;;6.75;;
1677;SDS011;6034;46.864;15.216;2024-01-30T10:56:28;9.40;;;7.53;;
1677;SDS011;6034;46.864;15.216;2024-01-30T10:58:58;11.73;;;7.45;;
1677;SDS011;6034;46.864;15.216;2024-01-30T11:01:26;11.38;;;7.03;;
1677;SDS011;6034;46.864;15.216;2024-01-30T11:03:55;9.85;;;6.90;;
1677;SDS011;6034;46.864;15.216;2024-01-30T11:06:24;7.88;;;6.10;;
1677;SDS011;6034;46.864;15.216;2024-01-30T11:09:01;6.57;;;5.40;;
1677;SDS011;6034;46.864;15.216;2024-01-30T11:11:46;6.97;;;5.95;;
1677;SDS011;6034;46.864;15.216;2024-01-30T11:14:15;8.13;;;6.53;;
1677;SDS011;6034;46.864;15.216;2024-01-30T11:16:42;7.10;;;6.18;;
1677;SDS011;6034;46.864;15.216;2024-01-30T11:19:10;8.45;;;5.95;;
1677;SDS011;6034;46.864;15.216;2024-01-30T11:21:41;6.63;;;5.82;;
1677;SDS011;6034;46.864;15.216;2024-01-30T11:24:09;6.70;;;6.00;;
1677;SDS011;6034;46.864;15.216;2024-01-30T11:26:36;8.30;;;6.22;;
1677;SDS011;6034;46.864;15.216;2024-01-30T11:29:07;11.50;;;6.40;;
1677;SDS011;6034;46.864;15.216;2024-01-30T11:31:34;16.02;;;6.57;;
1677;SDS011;6034;46.864;15.216;2024-01-30T11:34:02;8.65;;;5.65;;
1677;SDS011;6034;46.864;15.216;2024-01-30T11:36:30;9.57;;;6.65;;
1677;SDS011;6034;46.864;15.216;2024-01-30T11:39:04;8.95;;;6.13;;
1677;SDS011;6034;46.864;15.216;2024-01-30T11:41:33;8.60;;;5.70;;
1677;SDS011;6034;46.864;15.216;2024-01-30T11:44:00;8.95;;;5.20;;
1677;SDS011;6034;46.864;15.216;2024-01-30T11:46:30;7.60;;;5.68;;
1677;SDS011;6034;46.864;15.216;2024-01-30T11:48:59;9.15;;;6.38;;
1677;SDS011;6034;46.864;15.216;2024-01-30T11:51:26;8.60;;;6.95;;
1677;SDS011;6034;46.864;15.216;2024-01-30T11:53:53;10.75;;;7.03;;
1677;SDS011;6034;46.864;15.216;2024-01-30T11:56:23;10.48;;;6.93;;
1677;SDS011;6034;46.864;15.216;2024-01-30T11:58:52;9.48;;;6.13;;
1677;SDS011;6034;46.864;15.216;2024-01-30T12:01:20;9.95;;;7.57;;
1677;SDS011;6034;46.864;15.216;2024-01-30T12:03:49;8.70;;;6.90;;
1677;SDS011;6034;46.864;15.216;2024-01-30T12:06:16;8.10;;;6.60;;
1677;SDS011;6034;46.864;15.216;2024-01-30T12:08:54;8.55;;;6.13;;
1677;SDS011;6034;46.864;15.216;2024-01-30T12:11:25;10.32;;;7.55;;
1677;SDS011;6034;46.864;15.216;2024-01-30T12:13:52;10.10;;;6.93;;
1677;SDS011;6034;46.864;15.216;2024-01-30T12:16:20;11.18;;;6.90;;
1677;SDS011;6034;46.864;15.216;2024-01-30T12:18:48;8.52;;;6.40;;
1677;SDS011;6034;46.864;15.216;2024-01-30T12:21:16;10.50;;;6.72;;
1677;SDS011;6034;46.864;15.216;2024-01-30T12:23:44;9.10;;;6.63;;
1677;SDS011;6034;46.864;15.216;2024-01-30T12:26:12;9.45;;;6.13;;
1677;SDS011;6034;46.864;15.216;2024-01-30T12:28:48;12.77;;;6.30;;
1677;SDS011;6034;46.864;15.216;2024-01-30T12:31:16;8.32;;;6.78;;
1677;SDS011;6034;46.864;15.216;2024-01-30T12:33:43;9.30;;;6.55;;
1677;SDS011;6034;46.864;15.216;2024-01-30T12:36:11;10.63;;;6.30;;
1677;SDS011;6034;46.864;15.216;2024-01-30T12:38:39;12.45;;;6.68;;
1677;SDS011;6034;46.864;15.216;2024-01-30T12:41:07;9.77;;;6.70;;
1677;SDS011;6034;46.864;15.216;2024-01-30T12:43:35;10.82;;;6.57;;
1677;SDS011;6034;46.864;15.216;2024-01-30T12:46:04;8.80;;;6.45;;
1677;SDS011;6034;46.864;15.216;2024-01-30T12:48:32;11.35;;;7.22;;
1677;SDS011;6034;46.864;15.216;2024-01-30T12:51:00;14.00;;;6.22;;
1677;SDS011;6034;46.864;15.216;2024-01-30T12:53:27;9.02;;;7.20;;
1677;SDS011;6034;46.864;15.216;2024-01-30T12:55:56;10.23;;;6.75;;
1677;SDS011;6034;46.864;15.216;2024-01-30T12:58:23;8.52;;;6.75;;
1677;SDS011;6034;46.864;15.216;2024-01-30T13:00:50;8.85;;;6.80;;
1677;SDS011;6034;46.864;15.216;2024-01-30T13:03:19;9.32;;;7.25;;
1677;SDS011;6034;46.864;15.216;2024-01-30T13:05:47;7.93;;;6.82;;
1677;SDS011;6034;46.864;15.216;2024-01-30T13:08:14;9.52;;;6.80;;
1677;SDS011;6034;46.864;15.216;2024-01-30T13:10:41;9.70;;;6.57;;
1677;SDS011;6034;46.864;15.216;2024-01-30T13:13:09;11.30;;;6.68;;
1677;SDS011;6034;46.864;15.216;2024-01-30T13:15:36;8.45;;;7.10;;
1677;SDS011;6034;46.864;15.216;2024-01-30T13:18:04;9.85;;;6.80;;
1677;SDS011;6034;46.864;15.216;2024-01-30T13:20:33;12.40;;;7.00;;
1677;SDS011;6034;46.864;15.216;2024-01-30T13:23:00;12.05;;;6.30;;
1677;SDS011;6034;46.864;15.216;2024-01-30T13:25:27;13.27;;;6.70;;
1677;SDS011;6034;46.864;15.216;2024-01-30T13:27:55;9.82;;;6.40;;
1677;SDS011;6034;46.864;15.216;2024-01-30T13:30:22;10.70;;;7.10;;
1677;SDS011;6034;46.864;15.216;2024-01-30T13:32:49;8.25;;;6.35;;
1677;SDS011;6034;46.864;15.216;2024-01-30T13:35:17;10.05;;;6.88;;
1677;SDS011;6034;46.864;15.216;2024-01-30T13:37:46;9.57;;;6.68;;
1677;SDS011;6034;46.864;15.216;2024-01-30T13:40:14;8.13;;;6.90;;
1677;SDS011;6034;46.864;15.216;2024-01-30T13:42:42;12.93;;;7.97;;
1677;SDS011;6034;46.864;15.216;2024-01-30T13:45:10;10.73;;;8.13;;
1677;SDS011;6034;46.864;15.216;2024-01-30T13:47:37;8.50;;;6.32;;
1677;SDS011;6034;46.864;15.216;2024-01-30T13:50:04;11.18;;;7.13;;
1677;SDS011;6034;46.864;15.216;2024-01-30T13:52:34;7.88;;;6.68;;
1677;SDS011;6034;46.864;15.216;2024-01-30T13:55:02;10.60;;;7.10;;
1677;SDS011;6034;46.864;15.216;2024-01-30T13:57:30;11.65;;;8.45;;
1677;SDS011;6034;46.864;15.216;2024-01-30T14:00:01;12.07;;;7.82;;
1677;SDS011;6034;46.864;15.216;2024-01-30T14:05:01;8.70;;;6.93;;
1677;SDS011;6034;46.864;15.216;2024-01-30T14:07:31;9.40;;;8.05;;
1677;SDS011;6034;46.864;15.216;2024-01-30T14:09:58;10.13;;;8.50;;
1677;SDS011;6034;46.864;15.216;2024-01-30T14:12:27;11.13;;;8.48;;
1677;SDS011;6034;46.864;15.216;2024-01-30T14:14:55;12.45;;;9.55;;
1677;SDS011;6034;46.864;15.216;2024-01-30T14:17:22;10.65;;;8.80;;
1677;SDS011;6034;46.864;15.216;2024-01-30T14:19:50;12.50;;;9.45;;
1677;SDS011;6034;46.864;15.216;2024-01-30T14:22:17;12.68;;;8.57;;
1677;SDS011;6034;46.864;15.216;2024-01-30T14:24:44;12.07;;;9.52;;
1677;SDS011;6034;46.864;15.216;2024-01-30T14:27:12;10.27;;;8.25;;
1677;SDS011;6034;46.864;15.216;2024-01-30T14:29:41;10.55;;;8.18;;
1677;SDS011;6034;46.864;15.216;2024-01-30T14:32:09;11.52;;;8.55;;
1677;SDS011;6034;46.864;15.216;2024-01-30T14:34:36;10.77;;;8.93;;
1677;SDS011;6034;46.864;15.216;2024-01-30T14:37:04;12.52;;;9.32;;
1677;SDS011;6034;46.864;15.216;2024-01-30T14:39:32;16.90;;;9.05;;
1677;SDS011;6034;46.864;15.216;2024-01-30T14:41:59;10.52;;;9.43;;
1677;SDS011;6034;46.864;15.216;2024-01-30T14:44:26;11.40;;;8.73;;
1677;SDS011;6034;46.864;15.216;2024-01-30T14:46:59;11.80;;;8.48;;
1677;SDS011;6034;46.864;15.216;2024-01-30T14:49:27;11.00;;;9.20;;
1677;SDS011;6034;46.864;15.216;2024-01-30T14:51:54;14.05;;;8.75;;
1677;SDS011;6034;46.864;15.216;2024-01-30T14:54:23;14.02;;;9.45;;
1677;SDS011;6034;46.864;15.216;2024-01-30T14:56:51;16.52;;;9.75;;
1677;SDS011;6034;46.864;15.216;2024-01-30T14:59:18;11.02;;;9.75;;
1677;SDS011;6034;46.864;15.216;2024-01-30T15:01:47;11.13;;;9.57;;
1677;SDS011;6034;46.864;15.216;2024-01-30T15:04:16;12.93;;;9.98;;
1677;SDS011;6034;46.864;15.216;2024-01-30T15:06:43;14.85;;;9.25;;
1677;SDS011;6034;46.864;15.216;2024-01-30T15:09:13;13.15;;;9.52;;
1677;SDS011;6034;46.864;15.216;2024-01-30T15:11:41;15.70;;;8.85;;
1677;SDS011;6034;46.864;15.216;2024-01-30T15:14:12;14.38;;;10.02;;
1677;SDS011;6034;46.864;15.216;2024-01-30T15:16:39;12.18;;;9.93;;
1677;SDS011;6034;46.864;15.216;2024-01-30T15:19:09;13.00;;;9.80;;
1677;SDS011;6034;46.864;15.216;2024-01-30T15:21:38;14.80;;;9.90;;
1677;SDS011;6034;46.864;15.216;2024-01-30T15:24:05;12.43;;;10.00;;
1677;SDS011;6034;46.864;15.216;2024-01-30T15:26:33;13.45;;;9.80;;
1677;SDS011;6034;46.864;15.216;2024-01-30T15:29:01;12.68;;;9.85;;
1677;SDS011;6034;46.864;15.216;2024-01-30T15:31:28;14.15;;;11.25;;
1677;SDS011;6034;46.864;15.216;2024-01-30T15:33:56;12.68;;;9.95;;
1677;SDS011;6034;46.864;15.216;2024-01-30T15:36:23;13.77;;;9.88;;
1677;SDS011;6034;46.864;15.216;2024-01-30T15:38:53;12.45;;;10.18;;
1677;SDS011;6034;46.864;15.216;2024-01-30T15:41:20;14.93;;;11.85;;
1677;SDS011;6034;46.864;15.216;2024-01-30T15:43:48;15.73;;;13.23;;
1677;SDS011;6034;46.864;15.216;2024-01-30T15:46:15;13.30;;;10.40;;
1677;SDS011;6034;46.864;15.216;2024-01-30T15:48:42;12.40;;;11.07;;
1677;SDS011;6034;46.864;15.216;2024-01-30T15:51:10;11.30;;;9.43;;
1677;SDS011;6034;46.864;15.216;2024-01-30T15:53:37;11.77;;;10.38;;
1677;SDS011;6034;46.864;15.216;2024-01-30T15:56:06;11.60;;;9.95;;
1677;SDS011;6034;46.864;15.216;2024-01-30T15:58:34;12.60;;;10.70;;
1677;SDS011;6034;46.864;15.216;2024-01-30T16:01:01;13.77;;;10.63;;
1677;SDS011;6034;46.864;15.216;2024-01-30T16:03:28;16.48;;;11.00;;
1677;SDS011;6034;46.864;15.216;2024-01-30T16:05:56;13.90;;;9.75;;
1677;SDS011;6034;46.864;15.216;2024-01-30T16:08:23;12.52;;;10.25;;
1677;SDS011;6034;46.864;15.216;2024-01-30T16:10:50;15.35;;;10.50;;
1677;SDS011;6034;46.864;15.216;2024-01-30T16:13:19;12.48;;;10.02;;
1677;SDS011;6034;46.864;15.216;2024-01-30T16:15:47;12.95;;;9.60;;
1677;SDS011;6034;46.864;15.216;2024-01-30T16:18:14;15.48;;;9.93;;
1677;SDS011;6034;46.864;15.216;2024-01-30T16:20:41;14.60;;;10.68;;
1677;SDS011;6034;46.864;15.216;2024-01-30T16:23:08;14.20;;;9.57;;
1677;SDS011;6034;46.864;15.216;2024-01-30T16:25:36;13.43;;;11.25;;
1677;SDS011;6034;46.864;15.216;2024-01-30T16:28:05;14.48;;;10.13;;
1677;SDS011;6034;46.864;15.216;2024-01-30T16:30:33;11.63;;;9.73;;
1677;SDS011;6034;46.864;15.216;2024-01-30T16:33:01;14.70;;;10.93;;
1677;SDS011;6034;46.864;15.216;2024-01-30T16:35:28;11.70;;;9.52;;
1677;SDS011;6034;46.864;15.216;2024-01-30T16:37:55;14.20;;;11.30;;
1677;SDS011;6034;46.864;15.216;2024-01-30T16:40:23;12.35;;;10.35;;
1677;SDS011;6034;46.864;15.216;2024-01-30T16:42:50;11.38;;;10.27;;
1677;SDS011;6034;46.864;15.216;2024-01-30T16:45:17;13.40;;;9.70;;
1677;SDS011;6034;46.864;15.216;2024-01-30T16:47:46;12.32;;;9.40;;
1677;SDS011;6034;46.864;15.216;2024-01-30T16:50:13;13.80;;;9.88;;
1677;SDS011;6034;46.864;15.216;2024-01-30T16:52:41;14.27;;;10.43;;
1677;SDS011;6034;46.864;15.216;2024-01-30T16:55:08;10.85;;;9.60;;
1677;SDS011;6034;46.864;15.216;2024-01-30T16:57:35;12.18;;;9.75;;
1677;SDS011;6034;46.864;15.216;2024-01-30T17:00:03;9.68;;;8.40;;
1677;SDS011;6034;46.864;15.216;2024-01-30T17:02:32;11.20;;;8.13;;
1677;SDS011;6034;46.864;15.216;2024-01-30T17:05:01;12.43;;;9.20;;
1677;SDS011;6034;46.864;15.216;2024-01-30T17:07:29;10.40;;;7.95;;
1677;SDS011;6034;46.864;15.216;2024-01-30T17:10:00;10.98;;;7.90;;
1677;SDS011;6034;46.864;15.216;2024-01-30T17:12:28;12.63;;;8.80;;
1677;SDS011;6034;46.864;15.216;2024-01-30T17:14:56;12.45;;;8.65;;
1677;SDS011;6034;46.864;15.216;2024-01-30T17:17:23;12.68;;;9.85;;
1677;SDS011;6034;46.864;15.216;2024-01-30T17:19:51;10.88;;;8.90;;
1677;SDS011;6034;46.864;15.216;2024-01-30T17:22:20;12.63;;;7.97;;
1677;SDS011;6034;46.864;15.216;2024-01-30T17:24:47;10.23;;;8.07;;
1677;SDS011;6034;46.864;15.216;2024-01-30T17:27:15;8.57;;;7.43;;
1677;SDS011;6034;46.864;15.216;2024-01-30T17:29:43;8.63;;;7.35;;
1677;SDS011;6034;46.864;15.216;2024-01-30T17:32:11;13.68;;;7.95;;
1677;SDS011;6034;46.864;15.216;2024-01-30T17:34:38;11.15;;;7.10;;
1677;SDS011;6034;46.864;15.216;2024-01-30T17:37:06;11.10;;;8.25;;
1677;SDS011;6034;46.864;15.216;2024-01-30T17:39:35;11.05;;;7.97;;
1677;SDS011;6034;46.864;15.216;2024-01-30T17:42:02;10.90;;;9.30;;
1677;SDS011;6034;46.864;15.216;2024-01-30T17:44:29;10.32;;;8.68;;
1677;SDS011;6034;46.864;15.216;2024-01-30T17:46:58;15.90;;;10.73;;
1677;SDS011;6034;46.864;15.216;2024-01-30T17:49:26;12.75;;;9.65;;
1677;SDS011;6034;46.864;15.216;2024-01-30T17:51:55;14.93;;;9.98;;
1677;SDS011;6034;46.864;15.216;2024-01-30T17:54:22;14.45;;;10.85;;
1677;SDS011;6034;46.864;15.216;2024-01-30T17:56:51;14.75;;;10.20;;
1677;SDS011;6034;46.864;15.216;2024-01-30T17:59:18;14.20;;;11.02;;
1677;SDS011;6034;46.864;15.216;2024-01-30T18:01:46;13.20;;;9.13;;
1677;SDS011;6034;46.864;15.216;2024-01-30T18:04:14;11.15;;;9.30;;
1677;SDS011;6034;46.864;15.216;2024-01-30T18:06:43;11.38;;;8.27;;
1677;SDS011;6034;46.864;15.216;2024-01-30T18:09:15;10.25;;;8.23;;
1677;SDS011;6034;46.864;15.216;2024-01-30T18:11:44;12.18;;;8.02;;
1677;SDS011;6034;46.864;15.216;2024-01-30T18:14:15;10.38;;;8.73;;
1677;SDS011;6034;46.864;15.216;2024-01-30T18:16:44;13.50;;;8.05;;
1677;SDS011;6034;46.864;15.216;2024-01-30T18:19:11;10.27;;;9.13;;
1677;SDS011;6034;46.864;15.216;2024-01-30T18:21:39;13.05;;;9.10;;
1677;SDS011;6034;46.864;15.216;2024-01-30T18:24:07;10.85;;;8.95;;
1677;SDS011;6034;46.864;15.216;2024-01-30T18:26:35;14.18;;;9.10;;
1677;SDS011;6034;46.864;15.216;2024-01-30T18:29:04;11.70;;;10.23;;
1677;SDS011;6034;46.864;15.216;2024-01-30T18:31:33;12.50;;;10.30;;
1677;SDS011;6034;46.864;15.216;2024-01-30T18:34:00;11.60;;;10.40;;
1677;SDS011;6034;46.864;15.216;2024-01-30T18:36:27;14.02;;;10.43;;
1677;SDS011;6034;46.864;15.216;2024-01-30T18:38:55;17.05;;;10.43;;
1677;SDS011;6034;46.864;15.216;2024-01-30T18:41:22;14.13;;;10.20;;
1677;SDS011;6034;46.864;15.216;2024-01-30T18:43:50;12.20;;;10.40;;
1677;SDS011;6034;46.864;15.216;2024-01-30T18:46:20;11.50;;;8.55;;
1677;SDS011;6034;46.864;15.216;2024-01-30T18:48:52;12.25;;;10.05;;
1677;SDS011;6034;46.864;15.216;2024-01-30T18:51:21;15.18;;;10.57;;
1677;SDS011;6034;46.864;15.216;2024-01-30T18:53:49;13.20;;;10.10;;
1677;SDS011;6034;46.864;15.216;2024-01-30T18:56:18;13.90;;;9.93;;
1677;SDS011;6034;46.864;15.216;2024-01-30T18:58:48;13.90;;;10.93;;
1677;SDS011;6034;46.864;15.216;2024-01-30T19:01:17;15.40;;;9.68;;
1677;SDS011;6034;46.864;15.216;2024-01-30T19:03:47;12.38;;;9.65;;
1677;SDS011;6034;46.864;15.216;2024-01-30T19:06:19;13.05;;;10.25;;
1677;SDS011;6034;46.864;15.216;2024-01-30T19:08:48;12.43;;;10.32;;
1677;SDS011;6034;46.864;15.216;2024-01-30T19:11:17;15.27;;;11.13;;
1677;SDS011;6034;46.864;15.216;2024-01-30T19:13:46;15.20;;;10.20;;
1677;SDS011;6034;46.864;15.216;2024-01-30T19:16:16;14.65;;;10.77;;
1677;SDS011;6034;46.864;15.216;2024-01-30T19:18:44;16.30;;;11.82;;
1677;SDS011;6034;46.864;15.216;2024-01-30T19:21:14;13.30;;;11.65;;
1677;SDS011;6034;46.864;15.216;2024-01-30T19:23:45;15.95;;;10.07;;
1677;SDS011;6034;46.864;15.216;2024-01-30T19:26:13;14.13;;;11.55;;
1677;SDS011;6034;46.864;15.216;2024-01-30T19:28:42;11.80;;;10.60;;
1677;SDS011;6034;46.864;15.216;2024-01-30T19:31:12;13.10;;;9.98;;
1677;SDS011;6034;46.864;15.216;2024-01-30T19:33:42;18.20;;;11.07;;
1677;SDS011;6034;46.864;15.216;2024-01-30T19:36:11;19.45;;;10.82;;
1677;SDS011;6034;46.864;15.216;2024-01-30T19:38:41;13.05;;;10.23;;
1677;SDS011;6034;46.864;15.216;2024-01-30T19:41:12;11.55;;;9.57;;
1677;SDS011;6034;46.864;15.216;2024-01-30T19:43:41;13.55;;;10.98;;
1677;SDS011;6034;46.864;15.216;2024-01-30T19:46:11;17.17;;;11.15;;
1677;SDS011;6034;46.864;15.216;2024-01-30T19:48:40;19.23;;;11.52;;
1677;SDS011;6034;46.864;15.216;2024-01-30T19:51:11;14.40;;;11.60;;
1677;SDS011;6034;46.864;15.216;2024-01-30T19:53:39;13.77;;;10.48;;
1677;SDS011;6034;46.864;15.216;2024-01-30T19:56:08;14.82;;;11.85;;
1677;SDS011;6034;46.864;15.216;2024-01-30T19:58:38;13.02;;;11.65;;
1677;SDS011;6034;46.864;15.216;2024-01-30T20:01:06;14.05;;;11.30;;
1677;SDS011;6034;46.864;15.216;2024-01-30T20:03:34;17.27;;;11.80;;
1677;SDS011;6034;46.864;15.216;2024-01-30T20:06:03;15.93;;;12.20;;
1677;SDS011;6034;46.864;15.216;2024-01-30T20:08:31;17.35;;;12.45;;
1677;SDS011;6034;46.864;15.216;2024-01-30T20:10:59;15.73;;;12.38;;
1677;SDS011;6034;46.864;15.216;2024-01-30T20:13:29;15.90;;;11.73;;
1677;SDS011;6034;46.864;15.216;2024-01-30T20:15:59;22.15;;;13.55;;
1677;SDS011;6034;46.864;15.216;2024-01-30T20:18:27;18.50;;;12.60;;
1677;SDS011;6034;46.864;15.216;2024-01-30T20:20:55;17.25;;;11.52;;
1677;SDS011;6034;46.864;15.216;2024-01-30T20:23:24;15.63;;;11.82;;
1677;SDS011;6034;46.864;15.216;2024-01-30T20:25:52;18.88;;;12.60;;
1677;SDS011;6034;46.864;15.216;2024-01-30T20:28:22;17.95;;;11.52;;
1677;SDS011;6034;46.864;15.216;2024-01-30T20:30:51;15.75;;;12.40;;
1677;SDS011;6034;46.864;15.216;2024-01-30T20:33:20;15.70;;;12.30;;
1677;SDS011;6034;46.864;15.216;2024-01-30T20:35:49;16.15;;;12.32;;
1677;SDS011;6034;46.864;15.216;2024-01-30T20:38:17;19.40;;;13.05;;
1677;SDS011;6034;46.864;15.216;2024-01-30T20:40:47;14.68;;;11.13;;
1677;SDS011;6034;46.864;15.216;2024-01-30T20:43:17;16.25;;;11.90;;
1677;SDS011;6034;46.864;15.216;2024-01-30T20:45:46;15.27;;;11.50;;
1677;SDS011;6034;46.864;15.216;2024-01-30T20:48:17;14.27;;;12.75;;
1677;SDS011;6034;46.864;15.216;2024-01-30T20:50:49;20.73;;;12.73;;
1677;SDS011;6034;46.864;15.216;2024-01-30T20:53:19;18.58;;;13.65;;
1677;SDS011;6034;46.864;15.216;2024-01-30T20:55:47;17.48;;;13.73;;
1677;SDS011;6034;46.864;15.216;2024-01-30T20:58:17;15.75;;;12.95;;
1677;SDS011;6034;46.864;15.216;2024-01-30T21:00:45;19.38;;;15.50;;